Mazie, Oklahoma
Current Conditions -  °F | °C
As of 6:55 PM on Wednesday 17 Dec 2014 (Local Time) from KGCM Reporting Station
Light Rain Light Rain  
Wind Chill: 34°   Ceiling: Unl
Heat Index: 34°   Visibility: 5mi
Dew Point: 34°   Wind: 3mph
Humidity: 100%   Direction: 90°E
Pressure: 30.23"   Gusts: NA
Location:  36.11°N, 95.36°W
Report Text: KGCM 180055Z AUTO 09003KT 5SM -RA CLR 01/01 A3023 RMK AO2 P0005
Loading
Personal Weather Stations






























Interactive Weather Map New forecast layout! Learn more

10-Day Weather Forecast

Advertisements
Track Severe Weather on mobile